sensor_id;sensor_type;location;lat;lon;timestamp;noise_LAeq;noise_LA_min;noise_LA_max;noise_LA01;noise_LA95
75043;Laerm;54864;52.002;5.468;2022-10-26T00:00:12;47.43;44.50;50.76;;
75043;Laerm;54864;52.002;5.468;2022-10-26T00:01:15;47.50;44.88;50.79;;
75043;Laerm;54864;52.002;5.468;2022-10-26T00:02:17;47.40;44.65;50.71;;
75043;Laerm;54864;52.002;5.468;2022-10-26T00:03:18;47.41;44.63;50.79;;
75043;Laerm;54864;52.002;5.468;2022-10-26T00:04:20;47.39;44.47;50.92;;
75043;Laerm;54864;52.002;5.468;2022-10-26T00:05:21;47.50;44.40;50.55;;
75043;Laerm;54864;52.002;5.468;2022-10-26T00:06:25;47.33;44.98;50.60;;
75043;Laerm;54864;52.002;5.468;2022-10-26T00:07:29;47.41;44.82;50.79;;
75043;Laerm;54864;52.002;5.468;2022-10-26T00:08:31;47.47;44.70;50.78;;
75043;Laerm;54864;52.002;5.468;2022-10-26T00:09:32;47.48;44.96;50.67;;
75043;Laerm;54864;52.002;5.468;2022-10-26T00:10:35;47.43;44.59;50.45;;
75043;Laerm;54864;52.002;5.468;2022-10-26T00:11:36;47.46;44.35;50.83;;
75043;Laerm;54864;52.002;5.468;2022-10-26T00:12:38;47.50;44.72;50.25;;
75043;Laerm;54864;52.002;5.468;2022-10-26T00:13:40;47.47;44.73;50.57;;
75043;Laerm;54864;52.002;5.468;2022-10-26T00:14:42;47.42;44.46;50.75;;
75043;Laerm;54864;52.002;5.468;2022-10-26T00:15:43;47.46;44.76;51.21;;
75043;Laerm;54864;52.002;5.468;2022-10-26T00:16:44;47.49;44.65;50.70;;
75043;Laerm;54864;52.002;5.468;2022-10-26T00:17:46;47.40;44.48;51.03;;
75043;Laerm;54864;52.002;5.468;2022-10-26T00:18:49;47.47;44.46;50.58;;
75043;Laerm;54864;52.002;5.468;2022-10-26T00:19:50;47.47;44.55;50.65;;
75043;Laerm;54864;52.002;5.468;2022-10-26T00:20:51;47.51;44.76;51.23;;
75043;Laerm;54864;52.002;5.468;2022-10-26T00:21:52;47.42;44.35;50.47;;
75043;Laerm;54864;52.002;5.468;2022-10-26T00:22:55;47.42;44.36;50.30;;
75043;Laerm;54864;52.002;5.468;2022-10-26T00:23:58;47.47;44.55;51.71;;
75043;Laerm;54864;52.002;5.468;2022-10-26T00:25:00;47.48;44.73;50.50;;
75043;Laerm;54864;52.002;5.468;2022-10-26T00:26:01;47.52;44.24;51.42;;
75043;Laerm;54864;52.002;5.468;2022-10-26T00:27:03;47.57;44.18;53.85;;
75043;Laerm;54864;52.002;5.468;2022-10-26T00:28:04;47.47;44.57;50.79;;
75043;Laerm;54864;52.002;5.468;2022-10-26T00:29:06;47.45;44.87;50.59;;
75043;Laerm;54864;52.002;5.468;2022-10-26T00:30:09;47.91;45.22;51.37;;
75043;Laerm;54864;52.002;5.468;2022-10-26T00:31:14;47.61;45.10;50.93;;
75043;Laerm;54864;52.002;5.468;2022-10-26T00:32:16;47.98;45.27;51.28;;
75043;Laerm;54864;52.002;5.468;2022-10-26T00:33:18;47.54;44.65;50.82;;
75043;Laerm;54864;52.002;5.468;2022-10-26T00:34:19;47.43;44.18;51.39;;
75043;Laerm;54864;52.002;5.468;2022-10-26T00:35:21;47.51;44.65;53.44;;
75043;Laerm;54864;52.002;5.468;2022-10-26T00:36:23;47.40;44.73;50.66;;
75043;Laerm;54864;52.002;5.468;2022-10-26T00:37:25;47.42;44.66;51.01;;
75043;Laerm;54864;52.002;5.468;2022-10-26T00:38:27;47.46;44.88;55.31;;
75043;Laerm;54864;52.002;5.468;2022-10-26T00:39:29;47.49;44.45;50.70;;
75043;Laerm;54864;52.002;5.468;2022-10-26T00:40:30;47.41;44.26;50.53;;
75043;Laerm;54864;52.002;5.468;2022-10-26T00:41:33;47.43;44.65;51.12;;
75043;Laerm;54864;52.002;5.468;2022-10-26T00:42:34;47.38;44.54;51.11;;
75043;Laerm;54864;52.002;5.468;2022-10-26T00:43:38;47.47;44.84;50.58;;
75043;Laerm;54864;52.002;5.468;2022-10-26T00:44:56;47.46;44.69;50.68;;
75043;Laerm;54864;52.002;5.468;2022-10-26T00:46:02;47.47;44.73;50.55;;
75043;Laerm;54864;52.002;5.468;2022-10-26T00:47:08;47.43;44.54;50.71;;
75043;Laerm;54864;52.002;5.468;2022-10-26T00:48:17;47.46;44.41;50.46;;
75043;Laerm;54864;52.002;5.468;2022-10-26T00:49:29;47.47;45.04;50.87;;
75043;Laerm;54864;52.002;5.468;2022-10-26T00:50:35;47.33;44.33;51.04;;
75043;Laerm;54864;52.002;5.468;2022-10-26T00:52:43;47.44;44.87;50.96;;
75043;Laerm;54864;52.002;5.468;2022-10-26T00:53:46;47.44;44.57;50.46;;
75043;Laerm;54864;52.002;5.468;2022-10-26T00:55:52;47.40;44.70;51.30;;
75043;Laerm;54864;52.002;5.468;2022-10-26T00:56:55;47.47;44.91;50.50;;
75043;Laerm;54864;52.002;5.468;2022-10-26T00:57:57;47.46;44.39;50.56;;
75043;Laerm;54864;52.002;5.468;2022-10-26T00:59:05;47.39;44.55;50.91;;
75043;Laerm;54864;52.002;5.468;2022-10-26T01:01:09;47.40;44.43;50.66;;
75043;Laerm;54864;52.002;5.468;2022-10-26T01:03:14;47.45;44.70;50.69;;
75043;Laerm;54864;52.002;5.468;2022-10-26T01:04:16;47.52;44.76;50.52;;
75043;Laerm;54864;52.002;5.468;2022-10-26T01:05:18;47.56;44.65;50.49;;
75043;Laerm;54864;52.002;5.468;2022-10-26T01:06:20;47.63;44.74;50.62;;
75043;Laerm;54864;52.002;5.468;2022-10-26T01:07:24;47.44;44.58;50.42;;
75043;Laerm;54864;52.002;5.468;2022-10-26T01:08:26;47.46;44.63;51.38;;
75043;Laerm;54864;52.002;5.468;2022-10-26T01:10:34;47.52;44.68;50.16;;
75043;Laerm;54864;52.002;5.468;2022-10-26T01:11:36;47.56;44.97;50.40;;
75043;Laerm;54864;52.002;5.468;2022-10-26T01:12:37;47.70;44.58;50.47;;
75043;Laerm;54864;52.002;5.468;2022-10-26T01:13:42;47.58;45.04;50.63;;
75043;Laerm;54864;52.002;5.468;2022-10-26T01:14:44;47.41;44.92;50.59;;
75043;Laerm;54864;52.002;5.468;2022-10-26T01:17:10;48.58;44.32;53.37;;
75043;Laerm;54864;52.002;5.468;2022-10-26T01:18:23;48.01;44.74;51.55;;
75043;Laerm;54864;52.002;5.468;2022-10-26T01:20:20;47.45;44.43;51.40;;
75043;Laerm;54864;52.002;5.468;2022-10-26T01:21:44;47.48;43.98;50.80;;
75043;Laerm;54864;52.002;5.468;2022-10-26T01:22:56;47.46;44.73;50.71;;
75043;Laerm;54864;52.002;5.468;2022-10-26T01:24:20;47.48;44.73;50.23;;
75043;Laerm;54864;52.002;5.468;2022-10-26T01:25:50;47.44;44.28;50.74;;
75043;Laerm;54864;52.002;5.468;2022-10-26T01:27:26;47.52;44.43;50.79;;
75043;Laerm;54864;52.002;5.468;2022-10-26T01:29:00;47.52;44.95;50.73;;
75043;Laerm;54864;52.002;5.468;2022-10-26T01:31:34;47.52;44.96;50.80;;
75043;Laerm;54864;52.002;5.468;2022-10-26T01:32:45;47.39;44.77;50.65;;
75043;Laerm;54864;52.002;5.468;2022-10-26T01:33:53;47.46;44.49;50.10;;
75043;Laerm;54864;52.002;5.468;2022-10-26T01:35:08;47.34;44.53;50.22;;
75043;Laerm;54864;52.002;5.468;2022-10-26T01:36:28;47.45;44.46;51.38;;
75043;Laerm;54864;52.002;5.468;2022-10-26T01:37:37;47.34;44.32;50.43;;
75043;Laerm;54864;52.002;5.468;2022-10-26T01:38:51;47.42;44.48;50.66;;
75043;Laerm;54864;52.002;5.468;2022-10-26T01:40:01;47.54;44.48;50.74;;
75043;Laerm;54864;52.002;5.468;2022-10-26T01:41:17;47.47;44.93;50.53;;
75043;Laerm;54864;52.002;5.468;2022-10-26T01:42:25;47.39;44.57;50.31;;
75043;Laerm;54864;52.002;5.468;2022-10-26T01:43:32;47.44;44.69;50.72;;
75043;Laerm;54864;52.002;5.468;2022-10-26T01:44:40;47.45;44.57;51.06;;
75043;Laerm;54864;52.002;5.468;2022-10-26T01:45:46;47.46;44.57;50.37;;
75043;Laerm;54864;52.002;5.468;2022-10-26T01:46:53;47.43;44.26;50.28;;
75043;Laerm;54864;52.002;5.468;2022-10-26T01:47:58;47.40;44.51;50.61;;
75043;Laerm;54864;52.002;5.468;2022-10-26T01:49:07;47.50;44.89;51.29;;
75043;Laerm;54864;52.002;5.468;2022-10-26T01:50:11;47.48;44.65;51.05;;
75043;Laerm;54864;52.002;5.468;2022-10-26T01:51:14;47.43;44.90;50.96;;
75043;Laerm;54864;52.002;5.468;2022-10-26T01:52:17;47.49;44.74;50.92;;
75043;Laerm;54864;52.002;5.468;2022-10-26T01:53:20;47.35;45.02;50.56;;
75043;Laerm;54864;52.002;5.468;2022-10-26T01:54:20;47.52;43.98;50.46;;
75043;Laerm;54864;52.002;5.468;2022-10-26T01:55:48;47.47;44.30;50.71;;
75043;Laerm;54864;52.002;5.468;2022-10-26T01:56:53;47.76;44.81;51.21;;
75043;Laerm;54864;52.002;5.468;2022-10-26T01:58:04;47.45;44.68;50.57;;
75043;Laerm;54864;52.002;5.468;2022-10-26T02:00:23;47.46;44.44;50.31;;
75043;Laerm;54864;52.002;5.468;2022-10-26T02:01:42;47.52;44.51;50.39;;
75043;Laerm;54864;52.002;5.468;2022-10-26T02:03:00;47.44;44.61;50.88;;
75043;Laerm;54864;52.002;5.468;2022-10-26T02:04:17;47.48;44.74;50.20;;
75043;Laerm;54864;52.002;5.468;2022-10-26T02:05:43;47.48;44.63;51.36;;
75043;Laerm;54864;52.002;5.468;2022-10-26T02:07:00;47.50;44.58;50.87;;
75043;Laerm;54864;52.002;5.468;2022-10-26T02:08:28;47.49;44.78;50.65;;
75043;Laerm;54864;52.002;5.468;2022-10-26T02:09:55;47.65;44.10;51.10;;
75043;Laerm;54864;52.002;5.468;2022-10-26T02:11:10;47.54;45.09;50.52;;
75043;Laerm;54864;52.002;5.468;2022-10-26T02:12:26;47.42;44.45;50.91;;
75043;Laerm;54864;52.002;5.468;2022-10-26T02:14:47;47.45;44.32;50.48;;
75043;Laerm;54864;52.002;5.468;2022-10-26T02:15:55;47.52;44.55;50.41;;
75043;Laerm;54864;52.002;5.468;2022-10-26T02:17:07;47.57;44.80;50.26;;
75043;Laerm;54864;52.002;5.468;2022-10-26T02:18:23;47.46;44.10;50.99;;
75043;Laerm;54864;52.002;5.468;2022-10-26T02:19:37;47.51;44.58;50.65;;
75043;Laerm;54864;52.002;5.468;2022-10-26T02:20:45;47.65;45.21;54.00;;
75043;Laerm;54864;52.002;5.468;2022-10-26T02:21:54;47.53;44.58;50.52;;
75043;Laerm;54864;52.002;5.468;2022-10-26T02:23:03;47.55;44.48;51.07;;
75043;Laerm;54864;52.002;5.468;2022-10-26T02:24:09;47.53;44.77;50.44;;
75043;Laerm;54864;52.002;5.468;2022-10-26T02:25:18;47.54;44.45;50.65;;
75043;Laerm;54864;52.002;5.468;2022-10-26T02:26:24;47.48;44.78;50.59;;
75043;Laerm;54864;52.002;5.468;2022-10-26T02:27:34;47.48;44.77;50.75;;
75043;Laerm;54864;52.002;5.468;2022-10-26T02:28:43;47.49;44.42;51.05;;
75043;Laerm;54864;52.002;5.468;2022-10-26T02:29:49;47.55;44.22;51.16;;
75043;Laerm;54864;52.002;5.468;2022-10-26T02:30:57;47.60;44.45;50.75;;
75043;Laerm;54864;52.002;5.468;2022-10-26T02:33:08;47.57;44.61;51.07;;
75043;Laerm;54864;52.002;5.468;2022-10-26T02:34:16;47.69;44.08;51.19;;
75043;Laerm;54864;52.002;5.468;2022-10-26T02:35:22;47.67;45.10;50.97;;
75043;Laerm;54864;52.002;5.468;2022-10-26T02:36:30;47.46;44.84;50.80;;
75043;Laerm;54864;52.002;5.468;2022-10-26T02:37:35;47.56;44.59;50.57;;
75043;Laerm;54864;52.002;5.468;2022-10-26T02:38:41;47.51;44.74;50.48;;
75043;Laerm;54864;52.002;5.468;2022-10-26T02:39:44;47.56;44.74;50.88;;
75043;Laerm;54864;52.002;5.468;2022-10-26T02:40:50;47.61;45.04;51.05;;
75043;Laerm;54864;52.002;5.468;2022-10-26T02:41:53;47.60;44.99;50.87;;
75043;Laerm;54864;52.002;5.468;2022-10-26T02:43:03;47.57;44.77;50.97;;
75043;Laerm;54864;52.002;5.468;2022-10-26T02:44:12;47.57;44.93;50.72;;
75043;Laerm;54864;52.002;5.468;2022-10-26T02:46:25;47.51;44.67;50.52;;
75043;Laerm;54864;52.002;5.468;2022-10-26T02:47:30;47.49;44.80;50.49;;
75043;Laerm;54864;52.002;5.468;2022-10-26T02:48:31;47.75;44.94;50.84;;
75043;Laerm;54864;52.002;5.468;2022-10-26T02:49:33;47.48;44.79;50.85;;
75043;Laerm;54864;52.002;5.468;2022-10-26T02:50:43;47.64;44.56;50.77;;
75043;Laerm;54864;52.002;5.468;2022-10-26T02:51:53;47.68;44.99;50.86;;
75043;Laerm;54864;52.002;5.468;2022-10-26T02:53:09;47.41;44.15;51.17;;
75043;Laerm;54864;52.002;5.468;2022-10-26T02:54:25;47.57;44.36;50.53;;
75043;Laerm;54864;52.002;5.468;2022-10-26T02:55:34;47.42;44.46;50.66;;
75043;Laerm;54864;52.002;5.468;2022-10-26T02:56:47;47.57;44.76;50.96;;
75043;Laerm;54864;52.002;5.468;2022-10-26T02:57:57;47.54;44.18;51.14;;
75043;Laerm;54864;52.002;5.468;2022-10-26T02:59:04;47.43;44.84;50.16;;
75043;Laerm;54864;52.002;5.468;2022-10-26T03:00:10;47.49;44.77;51.31;;
75043;Laerm;54864;52.002;5.468;2022-10-26T03:01:13;47.48;44.53;50.69;;
75043;Laerm;54864;52.002;5.468;2022-10-26T03:03:20;47.76;44.70;51.44;;
75043;Laerm;54864;52.002;5.468;2022-10-26T03:04:28;47.86;44.94;50.47;;
75043;Laerm;54864;52.002;5.468;2022-10-26T03:05:32;47.60;44.55;50.97;;
75043;Laerm;54864;52.002;5.468;2022-10-26T03:06:33;47.68;44.82;50.43;;
75043;Laerm;54864;52.002;5.468;2022-10-26T03:07:35;48.17;45.28;51.39;;
75043;Laerm;54864;52.002;5.468;2022-10-26T03:08:36;48.09;44.93;52.66;;
75043;Laerm;54864;52.002;5.468;2022-10-26T03:09:37;47.47;44.77;50.58;;
75043;Laerm;54864;52.002;5.468;2022-10-26T03:10:41;47.60;44.90;50.71;;
75043;Laerm;54864;52.002;5.468;2022-10-26T03:11:44;47.51;44.52;50.88;;
75043;Laerm;54864;52.002;5.468;2022-10-26T03:12:45;47.60;44.33;50.50;;
75043;Laerm;54864;52.002;5.468;2022-10-26T03:13:47;47.52;44.68;50.76;;
75043;Laerm;54864;52.002;5.468;2022-10-26T03:14:47;47.65;45.15;50.40;;
75043;Laerm;54864;52.002;5.468;2022-10-26T03:15:49;47.66;44.91;50.67;;
75043;Laerm;54864;52.002;5.468;2022-10-26T03:16:51;47.57;44.97;51.15;;
75043;Laerm;54864;52.002;5.468;2022-10-26T03:18:54;47.57;45.02;50.80;;
75043;Laerm;54864;52.002;5.468;2022-10-26T03:20:57;47.81;45.26;50.57;;
75043;Laerm;54864;52.002;5.468;2022-10-26T03:21:59;47.64;45.19;50.59;;
75043;Laerm;54864;52.002;5.468;2022-10-26T03:22:59;47.75;45.05;51.28;;
75043;Laerm;54864;52.002;5.468;2022-10-26T03:24:01;47.62;44.86;50.75;;
75043;Laerm;54864;52.002;5.468;2022-10-26T03:25:03;47.70;44.88;50.79;;
75043;Laerm;54864;52.002;5.468;2022-10-26T03:26:05;47.57;44.70;50.65;;
75043;Laerm;54864;52.002;5.468;2022-10-26T03:27:06;47.80;45.19;51.37;;
75043;Laerm;54864;52.002;5.468;2022-10-26T03:28:08;47.57;45.02;50.93;;
75043;Laerm;54864;52.002;5.468;2022-10-26T03:29:09;47.53;44.68;50.36;;
75043;Laerm;54864;52.002;5.468;2022-10-26T03:30:11;47.53;44.95;50.40;;
75043;Laerm;54864;52.002;5.468;2022-10-26T03:31:12;47.64;44.70;50.79;;
75043;Laerm;54864;52.002;5.468;2022-10-26T03:32:14;47.60;44.81;50.72;;
75043;Laerm;54864;52.002;5.468;2022-10-26T03:33:15;47.64;45.07;51.78;;
75043;Laerm;54864;52.002;5.468;2022-10-26T03:34:18;47.68;44.93;50.64;;
75043;Laerm;54864;52.002;5.468;2022-10-26T03:35:20;47.62;44.64;51.00;;
75043;Laerm;54864;52.002;5.468;2022-10-26T03:36:22;47.62;45.00;50.36;;
75043;Laerm;54864;52.002;5.468;2022-10-26T03:37:24;47.70;44.49;50.56;;
75043;Laerm;54864;52.002;5.468;2022-10-26T03:38:25;47.61;44.39;50.30;;
75043;Laerm;54864;52.002;5.468;2022-10-26T03:39:27;47.62;44.62;50.95;;
75043;Laerm;54864;52.002;5.468;2022-10-26T03:40:28;47.58;45.01;50.30;;
75043;Laerm;54864;52.002;5.468;2022-10-26T03:41:29;47.63;44.84;50.61;;
75043;Laerm;54864;52.002;5.468;2022-10-26T03:43:34;47.53;44.83;50.30;;
75043;Laerm;54864;52.002;5.468;2022-10-26T03:44:36;47.71;43.97;50.61;;
75043;Laerm;54864;52.002;5.468;2022-10-26T03:45:37;47.59;44.73;50.34;;
75043;Laerm;54864;52.002;5.468;2022-10-26T03:46:38;47.66;45.08;51.33;;
75043;Laerm;54864;52.002;5.468;2022-10-26T03:47:44;47.65;44.95;50.65;;
75043;Laerm;54864;52.002;5.468;2022-10-26T03:48:45;47.83;44.95;50.83;;
75043;Laerm;54864;52.002;5.468;2022-10-26T03:49:48;47.68;45.11;51.02;;
75043;Laerm;54864;52.002;5.468;2022-10-26T03:50:49;47.73;45.33;50.78;;
75043;Laerm;54864;52.002;5.468;2022-10-26T03:51:51;47.68;45.13;50.60;;
75043;Laerm;54864;52.002;5.468;2022-10-26T03:52:52;47.56;44.38;50.69;;
75043;Laerm;54864;52.002;5.468;2022-10-26T03:53:53;47.69;45.02;50.63;;
75043;Laerm;54864;52.002;5.468;2022-10-26T03:54:54;47.57;44.91;50.47;;
75043;Laerm;54864;52.002;5.468;2022-10-26T03:55:56;47.73;44.97;51.45;;
75043;Laerm;54864;52.002;5.468;2022-10-26T03:56:57;47.70;43.94;50.89;;
75043;Laerm;54864;52.002;5.468;2022-10-26T03:57:59;47.67;44.88;50.77;;
75043;Laerm;54864;52.002;5.468;2022-10-26T03:59:00;47.78;45.29;50.57;;
75043;Laerm;54864;52.002;5.468;2022-10-26T04:00:02;47.72;45.00;50.94;;
75043;Laerm;54864;52.002;5.468;2022-10-26T04:01:03;47.61;44.75;51.08;;
75043;Laerm;54864;52.002;5.468;2022-10-26T04:02:08;47.63;44.96;50.81;;
75043;Laerm;54864;52.002;5.468;2022-10-26T04:03:08;47.64;44.85;50.87;;
75043;Laerm;54864;52.002;5.468;2022-10-26T04:04:10;47.82;45.07;51.10;;
75043;Laerm;54864;52.002;5.468;2022-10-26T04:05:13;47.74;45.16;50.64;;
75043;Laerm;54864;52.002;5.468;2022-10-26T04:06:16;47.69;45.30;50.71;;
75043;Laerm;54864;52.002;5.468;2022-10-26T04:07:16;47.79;44.38;51.42;;
75043;Laerm;54864;52.002;5.468;2022-10-26T04:08:18;47.66;45.14;50.77;;
75043;Laerm;54864;52.002;5.468;2022-10-26T04:09:19;47.74;44.85;50.59;;
75043;Laerm;54864;52.002;5.468;2022-10-26T04:10:22;47.77;44.38;50.65;;
75043;Laerm;54864;52.002;5.468;2022-10-26T04:11:23;47.92;45.03;51.25;;
75043;Laerm;54864;52.002;5.468;2022-10-26T04:12:25;47.81;44.80;50.82;;
75043;Laerm;54864;52.002;5.468;2022-10-26T04:13:26;47.79;45.15;51.00;;
75043;Laerm;54864;52.002;5.468;2022-10-26T04:14:27;48.11;45.41;51.16;;
75043;Laerm;54864;52.002;5.468;2022-10-26T04:15:28;48.09;45.13;50.87;;
75043;Laerm;54864;52.002;5.468;2022-10-26T04:16:30;47.95;45.53;50.99;;
75043;Laerm;54864;52.002;5.468;2022-10-26T04:17:31;47.98;45.08;50.70;;
75043;Laerm;54864;52.002;5.468;2022-10-26T04:18:33;47.94;45.31;50.93;;
75043;Laerm;54864;52.002;5.468;2022-10-26T04:20:38;47.80;44.30;50.58;;
75043;Laerm;54864;52.002;5.468;2022-10-26T04:21:41;47.87;45.11;50.51;;
75043;Laerm;54864;52.002;5.468;2022-10-26T04:22:43;47.87;45.07;51.28;;
75043;Laerm;54864;52.002;5.468;2022-10-26T04:23:44;47.79;44.90;50.83;;
75043;Laerm;54864;52.002;5.468;2022-10-26T04:24:45;47.82;45.16;50.57;;
75043;Laerm;54864;52.002;5.468;2022-10-26T04:25:46;47.96;45.24;50.82;;
75043;Laerm;54864;52.002;5.468;2022-10-26T04:26:48;50.31;45.41;58.22;;
75043;Laerm;54864;52.002;5.468;2022-10-26T04:27:49;50.55;45.92;56.92;;
75043;Laerm;54864;52.002;5.468;2022-10-26T04:28:51;48.42;44.39;54.44;;
75043;Laerm;54864;52.002;5.468;2022-10-26T04:29:51;47.82;45.21;50.64;;
75043;Laerm;54864;52.002;5.468;2022-10-26T04:30:53;47.75;45.00;51.01;;
75043;Laerm;54864;52.002;5.468;2022-10-26T04:31:54;47.80;44.75;50.68;;
75043;Laerm;54864;52.002;5.468;2022-10-26T04:32:56;46.96;46.96;46.96;;
75043;Laerm;54864;52.002;5.468;2022-10-26T04:33:57;48.03;44.45;51.16;;
75043;Laerm;54864;52.002;5.468;2022-10-26T04:34:58;47.89;45.10;51.42;;
75043;Laerm;54864;52.002;5.468;2022-10-26T04:36:01;48.26;45.13;52.22;;
75043;Laerm;54864;52.002;5.468;2022-10-26T04:37:03;48.20;45.34;52.79;;
75043;Laerm;54864;52.002;5.468;2022-10-26T04:38:05;48.22;45.49;51.07;;
75043;Laerm;54864;52.002;5.468;2022-10-26T04:39:07;48.05;45.27;51.35;;
75043;Laerm;54864;52.002;5.468;2022-10-26T04:40:09;47.80;45.01;50.92;;
75043;Laerm;54864;52.002;5.468;2022-10-26T04:41:11;47.82;45.11;51.20;;
75043;Laerm;54864;52.002;5.468;2022-10-26T04:42:12;48.35;45.10;53.61;;
75043;Laerm;54864;52.002;5.468;2022-10-26T04:43:14;48.07;45.81;51.24;;
75043;Laerm;54864;52.002;5.468;2022-10-26T04:44:14;47.86;45.26;50.57;;
75043;Laerm;54864;52.002;5.468;2022-10-26T04:45:16;47.96;45.40;50.85;;
75043;Laerm;54864;52.002;5.468;2022-10-26T04:46:17;47.85;45.11;51.30;;
75043;Laerm;54864;52.002;5.468;2022-10-26T04:47:19;48.34;45.63;52.52;;
75043;Laerm;54864;52.002;5.468;2022-10-26T04:48:20;47.89;45.35;50.58;;
75043;Laerm;54864;52.002;5.468;2022-10-26T04:49:22;48.07;45.52;51.09;;
75043;Laerm;54864;52.002;5.468;2022-10-26T04:50:23;47.89;45.32;50.90;;
75043;Laerm;54864;52.002;5.468;2022-10-26T04:51:26;47.80;44.95;51.06;;
75043;Laerm;54864;52.002;5.468;2022-10-26T04:52:27;48.03;45.69;51.05;;
75043;Laerm;54864;52.002;5.468;2022-10-26T04:53:29;48.02;45.26;51.38;;
75043;Laerm;54864;52.002;5.468;2022-10-26T04:54:30;48.18;45.46;51.61;;
75043;Laerm;54864;52.002;5.468;2022-10-26T04:55:32;51.64;46.51;60.44;;
75043;Laerm;54864;52.002;5.468;2022-10-26T04:56:33;49.40;45.61;56.72;;
75043;Laerm;54864;52.002;5.468;2022-10-26T04:57:35;47.97;45.12;51.48;;
75043;Laerm;54864;52.002;5.468;2022-10-26T04:58:36;47.81;45.00;50.96;;
75043;Laerm;54864;52.002;5.468;2022-10-26T04:59:38;47.86;45.16;50.63;;
75043;Laerm;54864;52.002;5.468;2022-10-26T05:00:38;47.96;45.34;50.90;;
75043;Laerm;54864;52.002;5.468;2022-10-26T05:01:40;48.46;45.64;52.62;;
75043;Laerm;54864;52.002;5.468;2022-10-26T05:02:41;54.22;46.27;63.31;;
75043;Laerm;54864;52.002;5.468;2022-10-26T05:05:45;48.60;45.38;53.00;;
75043;Laerm;54864;52.002;5.468;2022-10-26T05:06:51;48.02;45.42;51.06;;
75043;Laerm;54864;52.002;5.468;2022-10-26T05:07:53;48.66;45.49;54.69;;
75043;Laerm;54864;52.002;5.468;2022-10-26T05:08:56;48.32;45.56;53.00;;
75043;Laerm;54864;52.002;5.468;2022-10-26T05:09:57;47.97;45.27;50.91;;
75043;Laerm;54864;52.002;5.468;2022-10-26T05:10:58;47.87;44.98;50.61;;
75043;Laerm;54864;52.002;5.468;2022-10-26T05:12:00;47.92;45.07;50.74;;
75043;Laerm;54864;52.002;5.468;2022-10-26T05:13:01;48.09;45.23;51.03;;
75043;Laerm;54864;52.002;5.468;2022-10-26T05:14:03;48.53;45.24;52.86;;
75043;Laerm;54864;52.002;5.468;2022-10-26T05:15:05;48.29;45.42;50.91;;
75043;Laerm;54864;52.002;5.468;2022-10-26T05:16:07;47.93;45.24;51.04;;
75043;Laerm;54864;52.002;5.468;2022-10-26T05:17:08;48.01;45.15;51.37;;
75043;Laerm;54864;52.002;5.468;2022-10-26T05:18:10;47.95;45.09;50.77;;
75043;Laerm;54864;52.002;5.468;2022-10-26T05:19:14;47.99;45.08;52.48;;
75043;Laerm;54864;52.002;5.468;2022-10-26T05:20:15;47.95;44.90;50.69;;
75043;Laerm;54864;52.002;5.468;2022-10-26T05:22:20;48.04;44.96;50.53;;
75043;Laerm;54864;52.002;5.468;2022-10-26T05:23:22;48.30;45.44;51.39;;
75043;Laerm;54864;52.002;5.468;2022-10-26T05:24:23;48.43;45.73;52.18;;
75043;Laerm;54864;52.002;5.468;2022-10-26T05:26:26;48.15;45.17;50.79;;
75043;Laerm;54864;52.002;5.468;2022-10-26T05:27:28;48.02;45.32;50.85;;
75043;Laerm;54864;52.002;5.468;2022-10-26T05:28:30;47.84;44.91;50.94;;
75043;Laerm;54864;52.002;5.468;2022-10-26T05:29:31;47.92;45.40;50.55;;
75043;Laerm;54864;52.002;5.468;2022-10-26T05:30:33;48.21;45.23;51.38;;
75043;Laerm;54864;52.002;5.468;2022-10-26T05:31:34;48.14;45.65;52.31;;
75043;Laerm;54864;52.002;5.468;2022-10-26T05:32:35;48.39;45.93;52.36;;
75043;Laerm;54864;52.002;5.468;2022-10-26T05:33:38;48.37;45.78;55.09;;
75043;Laerm;54864;52.002;5.468;2022-10-26T05:34:38;48.95;45.78;57.28;;
75043;Laerm;54864;52.002;5.468;2022-10-26T05:35:41;48.34;45.18;56.17;;
75043;Laerm;54864;52.002;5.468;2022-10-26T05:36:41;48.52;45.36;56.77;;
75043;Laerm;54864;52.002;5.468;2022-10-26T05:37:45;48.76;45.36;57.18;;
75043;Laerm;54864;52.002;5.468;2022-10-26T05:38:46;48.95;45.90;55.06;;
75043;Laerm;54864;52.002;5.468;2022-10-26T05:39:48;51.39;44.89;74.38;;
75043;Laerm;54864;52.002;5.468;2022-10-26T05:40:51;49.95;45.76;67.08;;
75043;Laerm;54864;52.002;5.468;2022-10-26T05:41:53;49.75;46.16;56.76;;
75043;Laerm;54864;52.002;5.468;2022-10-26T05:42:59;52.51;46.30;72.58;;
75043;Laerm;54864;52.002;5.468;2022-10-26T05:44:00;59.66;47.06;76.70;;
75043;Laerm;54864;52.002;5.468;2022-10-26T05:45:03;55.05;48.13;67.28;;
75043;Laerm;54864;52.002;5.468;2022-10-26T05:46:04;55.81;47.28;69.47;;
75043;Laerm;54864;52.002;5.468;2022-10-26T05:47:06;61.25;49.63;80.89;;
75043;Laerm;54864;52.002;5.468;2022-10-26T05:48:07;53.57;46.68;67.24;;
75043;Laerm;54864;52.002;5.468;2022-10-26T05:49:08;50.32;45.84;64.96;;
75043;Laerm;54864;52.002;5.468;2022-10-26T05:50:11;49.13;45.43;57.20;;
75043;Laerm;54864;52.002;5.468;2022-10-26T05:51:13;48.93;46.28;54.55;;
75043;Laerm;54864;52.002;5.468;2022-10-26T05:52:15;48.82;45.87;57.21;;
75043;Laerm;54864;52.002;5.468;2022-10-26T05:53:18;49.13;45.82;61.89;;
75043;Laerm;54864;52.002;5.468;2022-10-26T05:54:19;49.22;46.25;57.62;;
75043;Laerm;54864;52.002;5.468;2022-10-26T05:55:21;48.28;45.58;51.00;;
75043;Laerm;54864;52.002;5.468;2022-10-26T05:56:34;50.75;45.95;67.32;;
75043;Laerm;54864;52.002;5.468;2022-10-26T05:58:39;48.70;45.74;52.12;;
75043;Laerm;54864;52.002;5.468;2022-10-26T05:59:41;50.11;46.08;59.46;;
75043;Laerm;54864;52.002;5.468;2022-10-26T06:00:59;50.34;45.39;58.01;;
75043;Laerm;54864;52.002;5.468;2022-10-26T06:02:18;48.28;45.72;50.93;;
75043;Laerm;54864;52.002;5.468;2022-10-26T06:03:42;49.06;45.40;61.32;;
75043;Laerm;54864;52.002;5.468;2022-10-26T06:04:48;50.67;46.02;65.75;;
75043;Laerm;54864;52.002;5.468;2022-10-26T06:05:53;49.24;45.53;61.19;;
75043;Laerm;54864;52.002;5.468;2022-10-26T06:06:56;48.15;45.53;51.70;;
75043;Laerm;54864;52.002;5.468;2022-10-26T06:08:00;48.77;45.54;55.01;;
75043;Laerm;54864;52.002;5.468;2022-10-26T06:09:03;50.59;45.79;75.76;;
75043;Laerm;54864;52.002;5.468;2022-10-26T06:10:08;50.89;46.13;71.69;;
75043;Laerm;54864;52.002;5.468;2022-10-26T06:11:11;50.93;46.34;72.38;;
75043;Laerm;54864;52.002;5.468;2022-10-26T06:12:14;51.78;45.77;71.25;;
75043;Laerm;54864;52.002;5.468;2022-10-26T06:13:16;52.12;45.64;67.95;;
75043;Laerm;54864;52.002;5.468;2022-10-26T06:14:19;48.80;45.73;64.22;;
75043;Laerm;54864;52.002;5.468;2022-10-26T06:15:21;48.70;45.93;54.80;;
75043;Laerm;54864;52.002;5.468;2022-10-26T06:16:35;48.92;46.00;59.46;;
75043;Laerm;54864;52.002;5.468;2022-10-26T06:17:54;48.81;45.74;58.25;;
75043;Laerm;54864;52.002;5.468;2022-10-26T06:19:13;49.15;45.66;56.26;;
75043;Laerm;54864;52.002;5.468;2022-10-26T06:20:37;49.00;45.99;56.85;;
75043;Laerm;54864;52.002;5.468;2022-10-26T06:21:59;48.98;45.80;62.86;;
75043;Laerm;54864;52.002;5.468;2022-10-26T06:23:31;48.56;46.07;58.54;;
75043;Laerm;54864;52.002;5.468;2022-10-26T06:24:48;49.50;45.84;64.48;;
75043;Laerm;54864;52.002;5.468;2022-10-26T06:26:04;49.52;46.15;66.32;;
75043;Laerm;54864;52.002;5.468;2022-10-26T06:27:22;50.46;46.10;55.14;;